In Rescue
 
Open Full Screen Window  High Contrast Mode
March 31, 2020 11:34 AM PDT
Weather Information
Wind Direction
  ---
Wind Speed
  00 kt (0 mph)
Wind Gust
  00 kt (0 mph)
Altimeter
30.04 in
Visibility
10 SM
Temperature
23° C
73° F
Dewpoint
03° C
37° F
Humidity
27%
1hr Rain Fall
00.00 in.
24hr Rain Fall
00.00 in.
Sky Condition
Clear
VFR

METAR KSBD 311834Z AUTO 00000KT 10SM CLR 23/03 A3004 RMK AO2 T02250028

FAA Disclaimer: The data displayed is for advisory purposes only and is not to be used for flight planning or operations.